Terminal Aerodrome Forecast
Issued by NWS

Home | Current Version | Previous Version | Text Only | Print | Product List | Glossary On
Versions: 1 2 3 4 5 6 7 8 9 10 11 12 13 14 15 16
012
FTUS45 KMSO 111720
TAFSMN
TAF
KSMN 111720Z 1118/1218 00000KT P6SM OVC100
     FM120300 00000KT P6SM VCSH OVC050
     FM120500 00000KT 5SM -SN BR OVC030
     FM121200 00000KT P6SM VCSH OVC050
      AMD LTD TO CLD VIS AND WIND=

USA.gov is the U.S. government's official web portal to all federal, state and local government web resources and services.